Karmel — 9HA2896 — position and weather

sailwx.info

Track history (hours):
 
Tides and Currents Weather Stations Pressure Air Temp Water Temp Dewpoint Dewpoint Depression Visibility Wind Speed Wind Dir Waves Ship Positions

Karmel

Last reported at 2014-Oct-20 03:06 UTC. Time now 2014-Oct-21 03:57 UTC.
Position N 55°56' E 014°52'.

Length 90 m; draft 5 m.

Type: Cargo ship. MMSI: 256632000.

Date/timePositionNaut miles runAvg speedWind from/ knotsBaromVisibWave heightAir tempDewpointWater temp
2014-Oct-20 03:06N 55°56' E 014°52'5 9.2
2014-Oct-20 02:33N 55°56' E 015°00'  
2014-Oct-15 18:07N 55°36' E 015°20'610.1
2014-Oct-15 17:32N 55°33' E 015°11'1310.1
2014-Oct-15 16:15N 55°27' E 014°51'810.0
2014-Oct-15 15:25N 55°23' E 014°38'55 9.3
2014-Oct-15 09:33N 55°14' E 013°04'1010.0
2014-Oct-15 08:33N 55°16' E 012°47'8 8.2
2014-Oct-15 07:33N 55°23' E 012°39'1010.3
2014-Oct-15 06:33N 55°33' E 012°42'9 8.7
2014-Oct-15 05:33N 55°42' E 012°41'9 9.0
2014-Oct-15 04:33N 55°51' E 012°39'10 9.9
2014-Oct-15 03:33N 56°01' E 012°38'8 7.7
2014-Oct-15 02:33N 56°07' E 012°30'10 9.7
2014-Oct-15 01:33N 56°11' E 012°14'  
2014-Oct-12 20:23N 56°09' E 011°54'1011.5
2014-Oct-12 19:33N 56°10' E 012°11'1010.4
2014-Oct-12 18:33N 56°08' E 012°29'1010.1
2014-Oct-12 17:33N 56°01' E 012°41'1010.3
2014-Oct-12 16:33N 55°50' E 012°43'1110.7
2014-Oct-12 15:33N 55°40' E 012°42'10 9.8
2014-Oct-12 14:33N 55°30' E 012°43'1110.6
2014-Oct-12 13:33N 55°19' E 012°42'  
Track history (hours):
 
Tides and Currents Weather Stations Pressure Air Temp Water Temp Dewpoint Dewpoint Depression Visibility Wind Speed Wind Dir Waves Ship Positions

Karmel

Last reported at 2014-Oct-20 03:06 UTC. Time now 2014-Oct-21 03:57 UTC.
Position N 55°56' E 014°52'.

Length 90 m; draft 5 m.

Type: Cargo ship. MMSI: 256632000.

Date/timePositionNaut miles runAvg speedWind from/ knotsBaromVisibWave heightAir tempDewpointWater temp
2014-Oct-20 03:06N 55°56' E 014°52'5 9.2
2014-Oct-20 02:33N 55°56' E 015°00'  
2014-Oct-15 18:07N 55°36' E 015°20'610.1
2014-Oct-15 17:32N 55°33' E 015°11'1310.1
2014-Oct-15 16:15N 55°27' E 014°51'810.0
2014-Oct-15 15:25N 55°23' E 014°38'55 9.3
2014-Oct-15 09:33N 55°14' E 013°04'1010.0
2014-Oct-15 08:33N 55°16' E 012°47'8 8.2
2014-Oct-15 07:33N 55°23' E 012°39'1010.3
2014-Oct-15 06:33N 55°33' E 012°42'9 8.7
2014-Oct-15 05:33N 55°42' E 012°41'9 9.0
2014-Oct-15 04:33N 55°51' E 012°39'10 9.9
2014-Oct-15 03:33N 56°01' E 012°38'8 7.7
2014-Oct-15 02:33N 56°07' E 012°30'10 9.7
2014-Oct-15 01:33N 56°11' E 012°14'  
2014-Oct-12 20:23N 56°09' E 011°54'1011.5
2014-Oct-12 19:33N 56°10' E 012°11'1010.4
2014-Oct-12 18:33N 56°08' E 012°29'1010.1
2014-Oct-12 17:33N 56°01' E 012°41'1010.3
2014-Oct-12 16:33N 55°50' E 012°43'1110.7
2014-Oct-12 15:33N 55°40' E 012°42'10 9.8
2014-Oct-12 14:33N 55°30' E 012°43'1110.6
2014-Oct-12 13:33N 55°19' E 012°42'  

Dump ship's entire track history